Time;durP1;ratioP1;P1;durP2;ratioP2;P2;SDS_P1;SDS_P2;PMS_P1;PMS_P2;Temp;Humidity;BMP_temperature;BMP_pressure;BME280_temperature;BME280_humidity;BME280_pressure;Samples;Min_cycle;Max_cycle;Signal;HPM_P1;HPM_P2
2024/01/11 00:00:23;;;;;;;68.77;27.10;;;;;;;-141.97;100.00;46323.78;5009122;28;20261;-85
2024/01/11 00:02:48;;;;;;;78.03;28.30;;;;;;;-141.97;100.00;46585.09;5008594;28;20262;-86
2024/01/11 00:05:14;;;;;;;69.80;27.30;;;;;;;-141.97;100.00;46481.34;5009707;28;20185;-85
2024/01/11 00:07:39;;;;;;;74.93;30.43;;;;;;;-141.97;100.00;46354.53;5008677;28;20178;-84
2024/01/11 00:10:05;;;;;;;71.60;26.17;;;;;;;-141.97;100.00;46287.28;5008318;28;20309;-85
2024/01/11 00:12:31;;;;;;;71.47;27.47;;;;;;;-141.97;100.00;46781.09;5008716;28;20308;-85
2024/01/11 00:14:58;;;;;;;65.57;25.33;;;;;;;-141.97;100.00;46335.31;5009681;28;20159;-85
2024/01/11 00:17:24;;;;;;;76.75;28.20;;;;;;;-141.97;100.00;46435.22;5010841;28;20269;-85
2024/01/11 00:19:50;;;;;;;63.85;25.95;;;;;;;-141.97;100.00;46439.06;5010936;28;20162;-84
2024/01/11 00:22:16;;;;;;;70.63;25.83;;;;;;;-141.97;100.00;46440.97;5010827;28;20174;-85
2024/01/11 00:24:41;;;;;;;75.97;26.90;;;;;;;-141.97;100.00;46750.34;5011697;28;20172;-85
2024/01/11 00:27:07;;;;;;;74.93;28.53;;;;;;;-141.97;100.00;46416.00;5009832;28;20174;-85
2024/01/11 00:29:32;;;;;;;55.80;21.20;;;;;;;-141.97;100.00;46500.56;5010806;28;20187;-85
2024/01/11 00:31:58;;;;;;;85.73;32.83;;;;;;;-141.97;100.00;46454.44;5014941;28;20254;-85
2024/01/11 00:34:23;;;;;;;85.50;30.97;;;;;;;-141.97;100.00;46394.88;5021538;28;20192;-85
2024/01/11 00:36:50;;;;;;;85.27;31.60;;;;;;;-141.97;100.00;46410.25;5035717;28;20167;-85
2024/01/11 00:39:15;;;;;;;88.72;34.20;;;;;;;-141.97;100.00;46642.75;5036124;28;20198;-86
2024/01/11 00:41:40;;;;;;;89.43;32.30;;;;;;;-141.97;100.00;46663.88;5037621;28;20179;-86
2024/01/11 00:44:07;;;;;;;86.87;33.13;;;;;;;-141.97;100.00;46223.88;5037821;28;20214;-86
2024/01/11 00:46:33;;;;;;;89.70;34.58;;;;;;;-141.97;100.00;46454.44;5038054;28;20151;-85
2024/01/11 00:48:58;;;;;;;95.97;35.30;;;;;;;-141.97;100.00;46329.53;5018976;28;20228;-84
2024/01/11 00:51:23;;;;;;;93.50;34.50;;;;;;;-141.97;100.00;46446.75;5014213;28;20587;-84
2024/01/11 00:53:49;;;;;;;103.97;37.50;;;;;;;-141.97;100.00;46623.53;5016756;28;20255;-84
2024/01/11 00:56:19;;;;;;;106.50;36.90;;;;;;;-141.97;100.00;46439.06;5021700;28;20173;-84
2024/01/11 00:58:44;;;;;;;92.35;35.25;;;;;;;-141.97;100.00;46498.63;5013711;28;20163;-85
2024/01/11 01:01:10;;;;;;;89.93;34.63;;;;;;;-141.97;100.00;46546.66;5011559;28;20257;-84
2024/01/11 01:03:36;;;;;;;100.57;37.13;;;;;;;-141.97;100.00;46367.97;5012953;28;20485;-85
2024/01/11 01:06:02;;;;;;;92.70;36.20;;;;;;;-141.97;100.00;46243.09;5011340;28;20621;-84
2024/01/11 01:08:28;;;;;;;100.53;37.78;;;;;;;-141.97;100.00;46289.19;5010840;28;20573;-85
2024/01/11 01:10:53;;;;;;;89.07;36.03;;;;;;;-141.97;100.00;46431.38;5010951;28;20241;-85
2024/01/11 01:13:19;;;;;;;89.43;33.77;;;;;;;-141.97;100.00;46567.81;5011247;28;20174;-85
2024/01/11 01:15:44;;;;;;;86.37;32.10;;;;;;;-141.97;100.00;46160.47;5012851;28;20249;-84
2024/01/11 01:18:10;;;;;;;73.20;31.30;;;;;;;-141.97;100.00;46734.97;5010770;28;20178;-85
2024/01/11 01:20:35;;;;;;;73.37;31.07;;;;;;;-141.97;100.00;46243.09;5010672;28;20174;-85
2024/01/11 01:23:01;;;;;;;74.50;32.40;;;;;;;-141.97;100.00;46446.75;5011934;28;20236;-84
2024/01/11 01:25:27;;;;;;;62.42;27.80;;;;;;;-141.97;100.00;46391.03;5010827;28;20230;-84
2024/01/11 01:27:52;;;;;;;63.43;27.77;;;;;;;-141.97;100.00;46293.03;5010713;28;20179;-86
2024/01/11 01:30:17;;;;;;;71.83;28.60;;;;;;;-141.97;100.00;46423.69;5012387;28;20274;-84
2024/01/11 01:32:43;;;;;;;58.77;27.27;;;;;;;-141.97;100.00;46262.28;5011889;28;20258;-85
2024/01/11 01:35:08;;;;;;;66.60;28.30;;;;;;;-141.97;100.00;46308.41;5010639;28;20204;-84
2024/01/11 01:37:34;;;;;;;70.13;28.57;;;;;;;-141.97;100.00;46269.97;5010491;28;20254;-84
2024/01/11 01:39:59;;;;;;;61.03;27.07;;;;;;;-141.97;100.00;46577.41;5009917;28;20274;-85
2024/01/11 01:42:24;;;;;;;62.20;26.80;;;;;;;-141.97;100.00;46396.78;5011165;28;20227;-85
2024/01/11 01:44:50;;;;;;;64.93;27.03;;;;;;;-141.97;100.00;46327.63;5011040;28;20182;-85
2024/01/11 01:47:16;;;;;;;71.73;30.57;;;;;;;-141.97;100.00;46277.66;5010818;28;20210;-85
2024/01/11 01:49:42;;;;;;;72.20;29.70;;;;;;;-141.97;100.00;46325.69;5010738;28;20205;-85
2024/01/11 01:52:09;;;;;;;69.70;29.80;;;;;;;-141.97;100.00;46464.03;5013417;28;20305;-83
2024/01/11 01:54:35;;;;;;;74.72;29.95;;;;;;;-141.97;100.00;46648.50;5015620;28;20186;-84
2024/01/11 01:57:02;;;;;;;65.00;26.40;;;;;;;-141.97;100.00;46337.22;5014032;28;20197;-84
2024/01/11 01:59:30;;;;;;;67.60;28.67;;;;;;;-141.97;100.00;46289.19;5013689;28;20182;-84
2024/01/11 02:01:56;;;;;;;64.40;26.75;;;;;;;-141.97;100.00;46427.53;5010481;28;20237;-85
2024/01/11 02:04:22;;;;;;;67.03;28.80;;;;;;;-141.97;100.00;46373.72;5010677;28;20618;-85
2024/01/11 02:06:49;;;;;;;72.13;30.75;;;;;;;-141.97;100.00;46312.25;5011351;28;20181;-85
2024/01/11 02:09:17;;;;;;;68.95;27.70;;;;;;;-141.97;100.00;46711.91;5010026;28;20202;-85
2024/01/11 02:11:44;;;;;;;66.78;29.30;;;;;;;-141.97;100.00;46686.94;5010120;28;20233;-85
2024/01/11 02:14:10;;;;;;;61.40;26.60;;;;;;;-141.97;100.00;46312.25;5011540;28;20182;-84
2024/01/11 02:16:36;;;;;;;71.35;29.70;;;;;;;-141.97;100.00;46371.81;5011348;28;20167;-85
2024/01/11 02:19:02;;;;;;;75.90;30.93;;;;;;;-141.97;100.00;46744.59;5011544;28;20193;-85
2024/01/11 02:21:30;;;;;;;69.25;29.23;;;;;;;-141.97;100.00;46442.91;5010072;28;20159;-84
2024/01/11 02:24:03;;;;;;;60.83;26.58;;;;;;;-141.97;100.00;46439.06;5011661;28;20177;-84
2024/01/11 02:26:29;;;;;;;59.65;25.08;;;;;;;-141.97;100.00;46377.56;5009811;28;20217;-84
2024/01/11 02:28:54;;;;;;;54.33;23.20;;;;;;;-141.97;100.00;46771.50;5010947;28;20235;-84
2024/01/11 02:31:20;;;;;;;56.63;24.03;;;;;;;-141.97;100.00;46281.50;5011109;28;20199;-85
2024/01/11 02:33:45;;;;;;;59.47;24.53;;;;;;;-141.97;100.00;46625.44;5011183;28;20539;-85
2024/01/11 02:36:11;;;;;;;51.80;21.77;;;;;;;-141.97;100.00;46446.75;5010844;28;20170;-84
2024/01/11 02:38:37;;;;;;;56.23;22.63;;;;;;;-141.97;100.00;46802.22;5009461;28;20189;-84
2024/01/11 02:41:03;;;;;;;57.67;22.88;;;;;;;-141.97;100.00;46531.28;5011455;28;20155;-84
2024/01/11 02:43:28;;;;;;;53.90;23.57;;;;;;;-141.97;100.00;46681.16;5009735;28;20226;-84
2024/01/11 02:45:55;;;;;;;53.00;21.63;;;;;;;-141.97;100.00;46456.34;5010516;28;20218;-84
2024/01/11 02:48:21;;;;;;;48.28;21.67;;;;;;;-141.97;100.00;46464.03;5010818;28;20162;-84
2024/01/11 02:50:48;;;;;;;49.83;20.67;;;;;;;-141.97;100.00;46444.81;5012499;28;20237;-84
2024/01/11 02:53:13;;;;;;;49.53;20.73;;;;;;;-141.97;100.00;46377.56;5011190;28;20165;-84
2024/01/11 02:55:39;;;;;;;45.07;20.60;;;;;;;-141.97;100.00;46173.91;5011683;28;20175;-86
2024/01/11 02:58:04;;;;;;;41.30;17.77;;;;;;;-141.97;100.00;46223.88;5011283;28;20241;-85
2024/01/11 03:00:30;;;;;;;38.87;17.23;;;;;;;-141.97;100.00;46377.56;5011394;28;20260;-85
2024/01/11 03:02:55;;;;;;;45.30;17.67;;;;;;;-141.97;100.00;46220.03;5011498;28;20167;-85
2024/01/11 03:05:21;;;;;;;40.47;17.37;;;;;;;-141.97;100.00;46429.47;5009423;28;20185;-85
2024/01/11 03:07:46;;;;;;;42.17;18.43;;;;;;;-141.97;100.00;46235.41;5010631;28;20167;-85
2024/01/11 03:10:12;;;;;;;41.90;18.63;;;;;;;-141.97;100.00;46339.16;5009617;28;20261;-85
2024/01/11 03:12:37;;;;;;;40.23;17.13;;;;;;;-141.97;100.00;46377.56;5009675;28;20241;-85
2024/01/11 03:15:03;;;;;;;43.87;17.77;;;;;;;-141.97;100.00;46300.72;5010933;28;20557;-85
2024/01/11 03:17:28;;;;;;;43.47;19.00;;;;;;;-141.97;100.00;46377.56;5008975;28;20232;-86
2024/01/11 03:19:54;;;;;;;43.77;19.10;;;;;;;-141.97;100.00;46287.28;5009226;28;20163;-86
2024/01/11 03:22:19;;;;;;;32.60;13.47;;;;;;;-141.97;100.00;46189.28;5009284;28;20681;-85
2024/01/11 03:24:44;;;;;;;41.23;17.00;;;;;;;-141.97;100.00;46291.13;5009233;28;20167;-85
2024/01/11 03:27:10;;;;;;;38.73;16.37;;;;;;;-141.97;100.00;46331.47;5009802;28;20197;-84
2024/01/11 03:29:35;;;;;;;35.87;15.93;;;;;;;-141.97;100.00;46665.78;5009049;28;20220;-85
2024/01/11 03:32:01;;;;;;;40.73;17.37;;;;;;;-141.97;100.00;46300.72;5009894;28;20174;-86
2024/01/11 03:34:26;;;;;;;40.97;16.33;;;;;;;-141.97;100.00;46784.94;5012579;28;20277;-87
2024/01/11 03:36:51;;;;;;;36.10;16.03;;;;;;;-141.97;100.00;46433.28;5014027;28;20163;-86
2024/01/11 03:39:18;;;;;;;34.60;13.80;;;;;;;-141.97;100.00;46704.22;5013210;28;20181;-86
2024/01/11 03:41:47;;;;;;;38.38;16.30;;;;;;;-141.97;100.00;46464.03;5009860;28;20640;-85
2024/01/11 03:44:12;;;;;;;42.10;17.60;;;;;;;-141.97;100.00;46264.22;5008932;28;20218;-87
2024/01/11 03:46:38;;;;;;;37.03;17.17;;;;;;;-141.97;100.00;46331.47;5010662;28;20189;-85
2024/01/11 03:49:04;;;;;;;36.07;15.20;;;;;;;-141.97;100.00;46808.00;5011545;28;20258;-85
2024/01/11 03:51:29;;;;;;;28.53;14.07;;;;;;;-141.97;100.00;46283.44;5010239;28;20171;-85
2024/01/11 03:53:54;;;;;;;34.23;15.13;;;;;;;-141.97;100.00;46471.72;5010458;28;20527;-86
2024/01/11 03:56:20;;;;;;;30.63;13.90;;;;;;;-141.97;100.00;46371.81;5009226;28;20171;-86
2024/01/11 03:58:45;;;;;;;40.70;15.17;;;;;;;-141.97;100.00;46740.75;5009558;28;20174;-86
2024/01/11 04:01:11;;;;;;;34.40;14.90;;;;;;;-141.97;100.00;46471.72;5010193;28;20578;-85
2024/01/11 04:03:37;;;;;;;30.93;15.13;;;;;;;-141.97;100.00;46433.28;5010811;28;20167;-85
2024/01/11 04:06:03;;;;;;;33.08;14.55;;;;;;;-141.97;100.00;46719.59;5011541;28;20163;-86
2024/01/11 04:08:28;;;;;;;36.55;16.30;;;;;;;-141.97;100.00;46646.59;5013054;28;20175;-85
2024/01/11 04:10:54;;;;;;;40.43;16.97;;;;;;;-141.97;100.00;46273.81;5013445;28;20554;-86
2024/01/11 04:13:19;;;;;;;43.07;17.03;;;;;;;-141.97;100.00;46366.06;5014122;28;20171;-86
2024/01/11 04:15:45;;;;;;;38.80;15.83;;;;;;;-141.97;100.00;46592.78;5014060;28;20248;-87
2024/01/11 04:18:10;;;;;;;33.77;14.73;;;;;;;-141.97;100.00;46711.91;5014311;28;20163;-86
2024/01/11 04:20:35;;;;;;;33.57;14.60;;;;;;;-141.97;100.00;46435.22;5014033;28;20241;-86
2024/01/11 04:23:01;;;;;;;31.90;14.47;;;;;;;-141.97;100.00;46777.25;5012091;28;20265;-86
2024/01/11 04:25:26;;;;;;;87.07;35.67;;;;;;;-141.97;100.00;46268.06;5012587;28;20174;-86
2024/01/11 04:27:52;;;;;;;43.10;19.70;;;;;;;-141.97;100.00;46454.44;5012594;28;20166;-86
2024/01/11 04:30:17;;;;;;;38.00;15.83;;;;;;;-141.97;100.00;46671.56;5013156;28;20226;-86
2024/01/11 04:32:43;;;;;;;40.00;16.27;;;;;;;-141.97;100.00;46319.94;5011781;28;20171;-86
2024/01/11 04:35:08;;;;;;;40.63;17.53;;;;;;;-141.97;100.00;46348.75;5011887;28;20211;-86
2024/01/11 04:37:35;;;;;;;39.00;17.37;;;;;;;-141.97;100.00;46769.56;5013047;28;20247;-85
2024/01/11 04:40:01;;;;;;;46.10;18.60;;;;;;;-141.97;100.00;46285.34;5012961;28;20166;-85
2024/01/11 04:42:29;;;;;;;42.93;16.97;;;;;;;-141.97;100.00;46754.19;5012803;28;20218;-86
2024/01/11 04:44:55;;;;;;;38.90;17.40;;;;;;;-141.97;100.00;46435.22;5011656;28;20178;-86
2024/01/11 04:47:20;;;;;;;47.73;21.80;;;;;;;-141.97;100.00;46385.25;5012799;28;20226;-84
2024/01/11 04:49:45;;;;;;;41.50;18.40;;;;;;;-141.97;100.00;46677.31;5012433;28;20584;-85
2024/01/11 04:52:11;;;;;;;42.07;17.70;;;;;;;-141.97;100.00;46469.81;5011732;28;20536;-86
2024/01/11 04:54:36;;;;;;;39.43;16.30;;;;;;;-141.97;100.00;46281.50;5011183;28;20265;-87
2024/01/11 04:57:02;;;;;;;40.77;17.40;;;;;;;-141.97;100.00;46729.22;5011423;28;20266;-86
2024/01/11 04:59:28;;;;;;;36.88;14.95;;;;;;;-141.97;100.00;46306.50;5015399;28;20205;-87
2024/01/11 05:01:53;;;;;;;47.13;18.33;;;;;;;-141.97;100.00;46339.16;5011013;28;20285;-86
2024/01/11 05:04:19;;;;;;;42.13;17.20;;;;;;;-141.97;100.00;46316.09;5012431;28;20228;-87
2024/01/11 05:06:44;;;;;;;47.17;19.33;;;;;;;-141.97;100.00;46439.06;5012741;28;20615;-85
2024/01/11 05:09:09;;;;;;;43.50;18.87;;;;;;;-141.97;100.00;46646.59;5017437;28;20198;-86
2024/01/11 05:11:35;;;;;;;44.47;19.70;;;;;;;-141.97;100.00;46442.91;5011883;28;20175;-87
2024/01/11 05:14:00;;;;;;;48.50;20.30;;;;;;;-141.97;100.00;46656.19;5013623;28;20237;-86
2024/01/11 05:16:29;;;;;;;45.50;18.33;;;;;;;-141.97;100.00;46319.94;5011651;28;20175;-87
2024/01/11 05:18:56;;;;;;;49.80;20.58;;;;;;;-141.97;100.00;46686.94;5023106;28;20151;-87
2024/01/11 05:21:22;;;;;;;48.38;19.60;;;;;;;-141.97;100.00;46458.28;5034554;28;20285;-88
2024/01/11 05:23:48;;;;;;;53.20;21.17;;;;;;;-141.97;100.00;46481.34;5029228;28;20170;-86
2024/01/11 05:26:18;;;;;;;48.33;20.55;;;;;;;-141.97;100.00;46471.72;5026125;28;20433;-87
2024/01/11 05:28:43;;;;;;;78.93;30.98;;;;;;;-141.97;100.00;46300.72;5030397;28;20209;-87
2024/01/11 05:31:14;;;;;;;76.37;32.67;;;;;;;-141.97;100.00;46289.19;5030483;28;20179;-86
2024/01/11 05:33:40;;;;;;;69.90;28.90;;;;;;;-141.97;100.00;46416.00;5017833;28;20198;-86
2024/01/11 05:36:06;;;;;;;59.92;25.20;;;;;;;-141.97;100.00;46323.78;5015007;28;20167;-86
2024/01/11 05:38:32;;;;;;;55.60;24.90;;;;;;;-141.97;100.00;46473.66;5013386;28;20265;-86
2024/01/11 05:40:58;;;;;;;58.77;23.03;;;;;;;-141.97;100.00;46306.50;5013258;28;20659;-86
2024/01/11 05:43:23;;;;;;;51.87;22.33;;;;;;;-141.97;100.00;46769.56;5011719;28;20286;-87
2024/01/11 05:45:49;;;;;;;68.80;26.77;;;;;;;-141.97;100.00;46473.66;5012094;28;20181;-87
2024/01/11 05:48:16;;;;;;;68.78;26.40;;;;;;;-141.97;100.00;46440.97;5013509;28;20206;-87
2024/01/11 05:50:42;;;;;;;76.65;27.88;;;;;;;-141.97;100.00;46756.13;5012075;28;20191;-86
2024/01/11 05:53:08;;;;;;;103.60;39.50;;;;;;;-141.97;100.00;46446.75;5012252;28;20159;-86
2024/01/11 05:55:33;;;;;;;79.53;35.60;;;;;;;-141.97;100.00;46469.81;5011770;28;20559;-86
2024/01/11 05:57:58;;;;;;;76.33;30.23;;;;;;;-141.97;100.00;46294.97;5010097;28;20232;-86
2024/01/11 06:00:25;;;;;;;104.90;44.00;;;;;;;-141.97;100.00;46375.66;5011377;28;20554;-85
2024/01/11 06:02:50;;;;;;;173.73;59.13;;;;;;;-141.97;100.00;46681.16;5011314;28;20158;-85
2024/01/11 06:05:16;;;;;;;102.10;42.03;;;;;;;-141.97;100.00;46344.91;5011651;28;20579;-84
2024/01/11 06:07:41;;;;;;;76.63;35.87;;;;;;;-141.97;100.00;46669.63;5022913;28;20171;-83
2024/01/11 06:10:08;;;;;;;71.73;30.17;;;;;;;-141.97;100.00;46333.38;5011116;28;20186;-84
2024/01/11 06:12:34;;;;;;;64.85;26.98;;;;;;;-141.97;100.00;46465.97;5010407;28;20175;-83
2024/01/11 06:15:01;;;;;;;75.93;33.80;;;;;;;-141.97;100.00;46683.09;5012100;28;20233;-83
2024/01/11 06:17:26;;;;;;;79.45;34.28;;;;;;;-141.97;100.00;46731.13;5011352;28;20603;-84
2024/01/11 06:19:52;;;;;;;115.90;42.73;;;;;;;-141.97;100.00;46656.19;5009611;28;20256;-86
2024/01/11 06:22:18;;;;;;;85.17;31.03;;;;;;;-141.97;100.00;46731.13;5009111;28;20270;-85
2024/01/11 06:24:43;;;;;;;121.47;42.47;;;;;;;-141.97;100.00;46427.53;5011267;28;20170;-85
2024/01/11 06:27:09;;;;;;;189.70;55.60;;;;;;;-141.97;100.00;46444.81;5010532;28;20241;-85
2024/01/11 06:29:34;;;;;;;191.83;58.80;;;;;;;-141.97;100.00;46285.34;5010822;28;20197;-86
2024/01/11 06:32:00;;;;;;;143.90;50.17;;;;;;;-141.97;100.00;46281.50;5011883;28;20171;-86
2024/01/11 06:34:25;;;;;;;123.77;47.67;;;;;;;-141.97;100.00;46483.25;5011189;28;20191;-86
2024/01/11 06:36:50;;;;;;;113.30;41.57;;;;;;;-141.97;100.00;46208.50;5009744;28;20170;-85
2024/01/11 06:39:16;;;;;;;152.77;60.23;;;;;;;-141.97;100.00;46266.13;5011941;28;20166;-85
2024/01/11 06:41:42;;;;;;;145.03;57.43;;;;;;;-141.97;100.00;46225.78;5015475;28;20162;-86
2024/01/11 06:44:07;;;;;;;171.27;66.63;;;;;;;-141.97;100.00;46435.22;5010671;28;20663;-85
2024/01/11 06:46:33;;;;;;;157.63;60.30;;;;;;;-141.97;100.00;46738.81;5009001;28;20179;-86
2024/01/11 06:48:58;;;;;;;164.37;62.87;;;;;;;-141.97;100.00;46412.16;5008948;28;20205;-85
2024/01/11 06:51:23;;;;;;;292.07;109.57;;;;;;;-141.97;100.00;46298.81;5010496;28;20548;-85
2024/01/11 06:53:49;;;;;;;359.80;133.30;;;;;;;-141.97;100.00;46408.31;5010085;28;20253;-85
2024/01/11 06:56:16;;;;;;;413.60;157.07;;;;;;;-141.97;100.00;46423.69;5012688;28;20189;-87
2024/01/11 06:58:41;;;;;;;375.67;143.75;;;;;;;-141.97;100.00;46400.63;5016555;28;20175;-85
2024/01/11 07:01:07;;;;;;;263.13;97.40;;;;;;;-141.97;100.00;46435.22;5012602;28;20159;-86
2024/01/11 07:03:32;;;;;;;235.30;85.10;;;;;;;-141.97;100.00;46343.00;5008004;28;20566;-89
2024/01/11 07:05:58;;;;;;;184.50;70.03;;;;;;;-141.97;100.00;46352.59;5009260;28;20182;-86
2024/01/11 07:08:23;;;;;;;131.33;49.37;;;;;;;-141.97;100.00;46356.44;5010139;28;20272;-87
2024/01/11 07:10:49;;;;;;;71.60;31.17;;;;;;;-141.97;100.00;46577.41;5009179;28;20563;-89
2024/01/11 07:13:16;;;;;;;57.45;25.60;;;;;;;-141.97;100.00;46266.13;5009514;28;20552;-87
2024/01/11 07:15:42;;;;;;;57.80;27.02;;;;;;;-141.97;100.00;46218.09;5008140;28;20201;-86
2024/01/11 07:18:08;;;;;;;65.97;30.23;;;;;;;-141.97;100.00;46001.00;5010726;28;20309;-88
2024/01/11 07:20:33;;;;;;;91.63;38.67;;;;;;;-141.97;100.00;45995.25;5010132;28;20409;-88
2024/01/11 07:22:59;;;;;;;61.40;26.10;;;;;;;-141.97;57.05;46465.97;5007225;28;20206;-89
2024/01/11 07:25:25;;;;;;;71.63;28.77;;;;;;;-141.97;55.61;46577.41;5007805;28;20276;-88
2024/01/11 07:27:50;;;;;;;51.57;22.40;;;;;;;-141.97;56.41;46093.22;5009098;28;20413;-90
2024/01/11 07:30:18;;;;;;;49.03;22.03;;;;;;;-141.97;60.61;46312.25;5009597;28;20205;-89
2024/01/11 07:32:44;;;;;;;55.30;24.60;;;;;;;-141.97;66.70;46196.97;5008781;28;20541;-86
2024/01/11 07:35:12;;;;;;;72.97;30.40;;;;;;;-141.97;69.65;46594.69;5009381;28;20418;-91
2024/01/11 07:37:41;;;;;;;47.83;22.90;;;;;;;-141.97;68.74;46041.34;5009380;28;20230;-87
2024/01/11 07:40:10;;;;;;;86.57;31.80;;;;;;;-141.97;69.88;46579.31;5009273;28;20509;-87
2024/01/11 07:42:39;;;;;;;43.00;17.97;;;;;;;-141.97;71.13;46293.03;5014324;28;20830;-89
2024/01/11 07:45:06;;;;;;;46.72;19.40;;;;;;;-141.97;71.74;46225.78;5016136;28;20484;-90
2024/01/11 07:47:33;;;;;;;30.65;14.25;;;;;;;-141.97;71.40;46713.84;5014229;28;20240;-90
2024/01/11 07:49:58;;;;;;;35.45;16.52;;;;;;;-141.97;72.64;46316.09;5018869;28;20214;-90
2024/01/11 07:52:24;;;;;;;33.83;14.47;;;;;;;-141.97;72.67;46300.72;5014226;28;20181;-88
2024/01/11 07:55:12;;;;;;;32.05;14.45;;;;;;;-141.97;73.09;46496.72;5034615;28;20214;-90
2024/01/11 07:57:43;;;;;;;26.65;11.57;;;;;;;-141.97;72.96;46508.22;5025629;28;20182;-91
2024/01/11 08:00:35;;;;;;;27.45;12.38;;;;;;;-141.97;74.11;46097.06;5029652;28;20171;-91
2024/01/11 08:03:01;;;;;;;51.08;25.95;;;;;;;-141.97;74.22;46089.38;5032534;28;20179;-88
2024/01/11 08:05:27;;;;;;;69.77;26.83;;;;;;;-141.97;71.96;46160.47;5014800;28;20193;-90
2024/01/11 08:07:52;;;;;;;62.20;25.03;;;;;;;-141.97;71.28;46158.53;5012720;28;20174;-89
2024/01/11 08:10:18;;;;;;;33.90;16.17;;;;;;;-141.97;72.85;46350.69;5013120;28;20205;-89
2024/01/11 08:12:43;;;;;;;41.13;19.20;;;;;;;-141.97;72.84;46129.72;5014129;28;20178;-89
2024/01/11 08:15:12;;;;;;;73.00;32.53;;;;;;;-141.97;72.14;46535.13;5015025;28;20175;-88
2024/01/11 08:17:44;;;;;;;57.93;25.37;;;;;;;-141.97;69.43;46354.53;5024003;28;20155;-86
2024/01/11 08:20:11;;;;;;;37.87;16.83;;;;;;;-141.97;69.15;46277.66;5024944;28;20414;-90
2024/01/11 08:22:42;;;;;;;45.77;18.47;;;;;;;-141.97;69.28;46329.53;5017210;28;20531;-89
2024/01/11 08:25:09;;;;;;;31.63;14.00;;;;;;;-141.97;70.72;46369.88;5016147;28;20441;-90
2024/01/11 08:27:34;;;;;;;36.23;16.70;;;;;;;-141.97;72.52;46569.72;5018648;28;20940;-89
2024/01/11 08:30:04;;;;;;;56.33;26.37;;;;;;;-141.97;71.02;46600.47;5019684;28;20438;-88
2024/01/11 08:32:38;;;;;;;59.87;28.83;;;;;;;-141.97;68.63;46646.59;5016473;28;20616;-87
2024/01/11 08:35:06;;;;;;;97.17;42.93;;;;;;;-141.97;67.15;46264.22;5013587;28;20420;-87
2024/01/11 08:37:32;;;;;;;75.23;32.00;;;;;;;-141.97;65.24;46269.97;5013563;28;20500;-87
2024/01/11 08:39:57;;;;;;;100.83;40.23;;;;;;;-141.97;65.63;46538.97;5014219;28;20452;-87
2024/01/11 08:42:23;;;;;;;69.27;32.43;;;;;;;-141.97;63.75;46665.78;5012872;28;20566;-89
2024/01/11 08:44:48;;;;;;;73.43;33.00;;;;;;;-141.97;62.65;46623.53;5011440;28;20779;-85
2024/01/11 08:47:14;;;;;;;75.90;32.97;;;;;;;-141.97;62.97;46131.66;5012860;28;20550;-84
2024/01/11 08:49:40;;;;;;;95.87;38.87;;;;;;;-141.97;62.84;46648.50;5013439;28;20195;-85
2024/01/11 08:52:06;;;;;;;58.20;27.93;;;;;;;-141.97;62.44;46271.91;5012412;28;20429;-87
2024/01/11 08:54:34;;;;;;;48.10;23.23;;;;;;;-141.97;62.45;46097.06;5014828;28;20190;-88
2024/01/11 08:57:00;;;;;;;52.00;24.53;;;;;;;-141.97;61.12;46475.56;5013892;28;20174;-87
2024/01/11 08:59:25;;;;;;;37.70;20.90;;;;;;;-141.97;60.69;46663.88;5013234;28;20402;-90
2024/01/11 09:01:52;;;;;;;45.67;22.93;;;;;;;-141.97;59.81;46150.84;5010971;28;20474;-87
2024/01/11 09:04:17;;;;;;;36.20;18.57;;;;;;;-141.97;59.71;46016.38;5012023;28;20289;-87
2024/01/11 09:06:43;;;;;;;43.73;21.30;;;;;;;-141.97;58.98;46425.63;5013134;28;20839;-88
2024/01/11 09:09:13;;;;;;;42.87;21.27;;;;;;;-141.97;59.46;46033.66;5012259;28;20248;-89
2024/01/11 09:11:40;;;;;;;34.73;17.37;;;;;;;-141.97;60.80;46020.22;5011549;28;20421;-89
2024/01/11 09:14:12;;;;;;;38.57;17.37;;;;;;;-141.97;61.47;46227.72;5013702;28;20413;-89
2024/01/11 09:16:39;;;;;;;64.17;28.73;;;;;;;-141.97;62.11;46016.38;5014032;28;20890;-90
2024/01/11 09:19:05;;;;;;;78.70;33.23;;;;;;;-141.97;60.91;46423.69;5013854;28;20432;-88
2024/01/11 09:21:30;;;;;;;42.73;20.90;;;;;;;-141.97;61.38;46498.63;5012222;28;20413;-90
2024/01/11 09:23:56;;;;;;;60.90;26.43;;;;;;;-141.97;60.88;46592.78;5010871;28;20209;-88
2024/01/11 09:26:22;;;;;;;55.20;24.37;;;;;;;-141.97;60.10;46010.63;5013454;28;20594;-89
2024/01/11 09:28:48;;;;;;;43.40;18.97;;;;;;;-141.97;59.54;46423.69;5012984;28;20194;-90
2024/01/11 09:31:14;;;;;;;54.43;26.40;;;;;;;-141.97;59.95;46020.22;5013912;28;20417;-90
2024/01/11 09:33:39;;;;;;;43.17;22.07;;;;;;;-141.97;58.53;46181.59;5014669;28;20181;-89
2024/01/11 09:36:05;;;;;;;43.93;21.90;;;;;;;-141.97;58.43;46431.38;5018119;28;20171;-91
2024/01/11 09:38:30;;;;;;;44.93;22.27;;;;;;;-141.97;56.91;45962.59;5021647;28;20174;-91
2024/01/11 09:41:07;;;;;;;34.67;17.00;;;;;;;-141.97;56.39;46544.75;5017879;28;20247;-92
2024/01/11 09:43:34;;;;;;;50.13;23.50;;;;;;;-141.97;56.15;46223.88;5013350;28;20225;-91
2024/01/11 09:46:03;;;;;;;36.03;18.57;;;;;;;-141.97;56.22;46062.47;5012169;28;20987;-92
2024/01/11 09:48:30;;;;;;;43.03;20.63;;;;;;;-141.97;56.08;46060.56;5020282;28;20441;-89
2024/01/11 09:50:59;;;;;;;71.00;32.87;;;;;;;-141.97;55.28;46139.34;5032308;28;20418;-90
2024/01/11 09:53:26;;;;;;;35.97;17.13;;;;;;;-141.97;55.12;46035.59;5025904;28;20436;-92
2024/01/11 09:55:53;;;;;;;32.73;16.70;;;;;;;-141.97;54.63;46412.16;5022929;28;20414;-89
2024/01/11 09:58:21;;;;;;;29.97;12.73;;;;;;;-141.97;54.40;46364.13;5028392;28;20414;-89
2024/01/11 10:00:55;;;;;;;34.30;18.13;;;;;;;-141.97;54.55;46208.50;5034095;28;20428;-91
2024/01/11 10:03:24;;;;;;;35.67;17.33;;;;;;;-141.97;55.28;46558.19;5030295;28;20402;-92
2024/01/11 10:05:58;;;;;;;32.00;16.40;;;;;;;-141.97;54.80;46047.13;5018782;28;20510;-93
2024/01/11 10:08:27;;;;;;;30.07;16.47;;;;;;;-141.97;56.94;46266.13;5016264;28;20398;-92
2024/01/11 10:11:08;;;;;;;46.87;20.40;;;;;;;-141.97;56.85;46440.97;5014023;28;20535;-94
2024/01/11 10:13:39;;;;;;;48.10;20.83;;;;;;;-141.97;55.34;46131.66;5013066;28;20887;-92
2024/01/11 10:16:20;;;;;;;43.67;21.13;;;;;;;-141.97;53.98;46047.13;5012811;28;20424;-91
2024/01/11 10:18:45;;;;;;;37.50;17.90;;;;;;;-141.97;53.51;46512.06;5011892;28;20499;-91
2024/01/11 10:21:17;;;;;;;103.03;43.47;;;;;;;-141.97;53.33;46133.56;4991979;28;20422;-93
2024/01/11 10:23:43;;;;;;;30.77;16.03;;;;;;;-141.97;54.43;46490.94;4994893;28;20202;-92
2024/01/11 10:26:13;;;;;;;32.33;16.80;;;;;;;-141.97;53.63;46477.50;4981592;28;20930;-91
2024/01/11 10:28:44;;;;;;;55.60;26.80;;;;;;;-141.97;52.67;46529.38;4976158;28;20211;-92
2024/01/11 10:31:27;;;;;;;75.00;34.13;;;;;;;-141.97;52.64;46177.75;4974955;28;20961;-93
2024/01/11 10:33:52;;;;;;;39.00;19.47;;;;;;;-141.97;53.08;46423.69;4974828;28;20434;-91
2024/01/11 10:36:21;;;;;;;32.20;17.00;;;;;;;-141.97;53.92;46350.69;4973199;28;20428;-91
2024/01/11 10:38:51;;;;;;;120.30;44.33;;;;;;;-141.97;53.79;45997.16;4972983;28;20640;-90
2024/01/11 10:41:20;;;;;;;59.23;25.23;;;;;;;-141.97;53.35;46181.59;4957858;28;20519;-92
2024/01/11 10:44:42;;;;;;;32.60;16.53;;;;;;;-141.97;53.16;46166.22;4935416;28;20471;-91
2024/01/11 10:47:58;;;;;;;38.93;16.40;;;;;;;-141.97;52.19;46177.75;4936367;29;20425;-93
2024/01/11 10:53:35;;;;;;;36.83;20.70;;;;;;;-141.97;53.64;46223.88;4896641;29;20538;-90
2024/01/11 10:56:03;;;;;;;27.53;15.30;;;;;;;-141.97;52.86;45962.59;4902347;29;20444;-91